sensor_id;sensor_type;location;lat;lon;timestamp;pressure;altitude;pressure_sealevel;temperature;humidity
12879;BME280;20617;49.476;10.986;2023-03-01T00:00:23;99167.72;;;0.41;100.00
12879;BME280;20617;49.476;10.986;2023-03-01T00:02:28;99161.69;;;0.39;100.00
12879;BME280;20617;49.476;10.986;2023-03-01T00:04:34;99165.06;;;0.36;100.00
12879;BME280;20617;49.476;10.986;2023-03-01T00:06:43;99160.84;;;0.38;100.00
12879;BME280;20617;49.476;10.986;2023-03-01T00:08:49;99168.50;;;0.37;100.00
12879;BME280;20617;49.476;10.986;2023-03-01T00:11:02;99172.69;;;0.32;100.00
12879;BME280;20617;49.476;10.986;2023-03-01T00:13:07;99165.72;;;0.21;100.00
12879;BME280;20617;49.476;10.986;2023-03-01T00:15:12;99173.44;;;0.25;100.00
12879;BME280;20617;49.476;10.986;2023-03-01T00:17:17;99176.91;;;0.27;100.00
12879;BME280;20617;49.476;10.986;2023-03-01T00:19:22;99175.19;;;0.27;100.00
12879;BME280;20617;49.476;10.986;2023-03-01T00:21:27;99174.16;;;0.14;100.00
12879;BME280;20617;49.476;10.986;2023-03-01T00:23:36;99170.00;;;0.21;100.00
12879;BME280;20617;49.476;10.986;2023-03-01T00:25:42;99176.88;;;0.25;100.00
12879;BME280;20617;49.476;10.986;2023-03-01T00:27:47;99166.66;;;0.27;100.00
12879;BME280;20617;49.476;10.986;2023-03-01T00:29:52;99172.66;;;0.29;100.00
12879;BME280;20617;49.476;10.986;2023-03-01T00:31:57;99166.63;;;0.25;100.00
12879;BME280;20617;49.476;10.986;2023-03-01T00:34:03;99170.88;;;0.25;100.00
12879;BME280;20617;49.476;10.986;2023-03-01T00:36:09;99170.88;;;0.25;100.00
12879;BME280;20617;49.476;10.986;2023-03-01T00:38:15;99163.22;;;0.25;100.00
12879;BME280;20617;49.476;10.986;2023-03-01T00:40:22;99164.91;;;0.24;100.00
12879;BME280;20617;49.476;10.986;2023-03-01T00:42:27;99159.50;;;0.06;100.00
12879;BME280;20617;49.476;10.986;2023-03-01T00:44:32;99157.88;;;0.09;100.00
12879;BME280;20617;49.476;10.986;2023-03-01T00:46:37;99160.31;;;0.02;100.00
12879;BME280;20617;49.476;10.986;2023-03-01T00:48:42;99169.66;;;-0.02;100.00
12879;BME280;20617;49.476;10.986;2023-03-01T00:50:47;99160.31;;;0.00;100.00
12879;BME280;20617;49.476;10.986;2023-03-01T00:52:53;99161.97;;;-0.02;100.00
12879;BME280;20617;49.476;10.986;2023-03-01T00:54:58;99163.78;;;0.04;100.00
12879;BME280;20617;49.476;10.986;2023-03-01T00:57:06;99161.25;;;0.08;100.00
12879;BME280;20617;49.476;10.986;2023-03-01T00:59:11;99148.50;;;0.10;100.00
12879;BME280;20617;49.476;10.986;2023-03-01T01:01:22;99151.06;;;0.10;100.00
12879;BME280;20617;49.476;10.986;2023-03-01T01:03:29;99140.75;;;0.05;100.00
12879;BME280;20617;49.476;10.986;2023-03-01T01:05:34;99137.41;;;0.11;100.00
12879;BME280;20617;49.476;10.986;2023-03-01T01:07:39;99138.34;;;0.16;100.00
12879;BME280;20617;49.476;10.986;2023-03-01T01:09:44;99139.22;;;0.19;100.00
12879;BME280;20617;49.476;10.986;2023-03-01T01:11:51;99138.47;;;0.24;100.00
12879;BME280;20617;49.476;10.986;2023-03-01T01:13:59;99129.03;;;0.21;100.00
12879;BME280;20617;49.476;10.986;2023-03-01T01:16:05;99137.44;;;0.12;100.00
12879;BME280;20617;49.476;10.986;2023-03-01T01:18:10;99131.31;;;0.03;100.00
12879;BME280;20617;49.476;10.986;2023-03-01T01:20:23;99125.31;;;-0.01;100.00
12879;BME280;20617;49.476;10.986;2023-03-01T01:22:27;99126.16;;;-0.02;100.00
12879;BME280;20617;49.476;10.986;2023-03-01T01:24:32;99126.94;;;-0.06;100.00
12879;BME280;20617;49.476;10.986;2023-03-01T01:26:38;99112.41;;;-0.07;100.00
12879;BME280;20617;49.476;10.986;2023-03-01T01:28:42;99114.13;;;-0.08;100.00
12879;BME280;20617;49.476;10.986;2023-03-01T01:30:50;99114.13;;;-0.08;100.00
12879;BME280;20617;49.476;10.986;2023-03-01T01:32:55;99117.53;;;-0.07;100.00
12879;BME280;20617;49.476;10.986;2023-03-01T01:35:00;99106.38;;;-0.12;100.00
12879;BME280;20617;49.476;10.986;2023-03-01T01:37:04;99113.19;;;-0.14;100.00
12879;BME280;20617;49.476;10.986;2023-03-01T01:39:09;99101.09;;;-0.25;100.00
12879;BME280;20617;49.476;10.986;2023-03-01T01:41:16;99109.69;;;-0.18;100.00
12879;BME280;20617;49.476;10.986;2023-03-01T01:43:23;99100.44;;;-0.10;100.00
12879;BME280;20617;49.476;10.986;2023-03-01T01:45:34;99094.50;;;-0.07;100.00
12879;BME280;20617;49.476;10.986;2023-03-01T01:47:41;99097.91;;;-0.08;100.00
12879;BME280;20617;49.476;10.986;2023-03-01T01:49:52;99100.44;;;-0.10;100.00
12879;BME280;20617;49.476;10.986;2023-03-01T01:52:07;99102.16;;;-0.10;100.00
12879;BME280;20617;49.476;10.986;2023-03-01T01:54:16;99096.19;;;-0.09;100.00
12879;BME280;20617;49.476;10.986;2023-03-01T01:56:23;99086.88;;;-0.04;100.00
12879;BME280;20617;49.476;10.986;2023-03-01T01:58:29;99089.53;;;0.04;100.00
12879;BME280;20617;49.476;10.986;2023-03-01T02:00:36;99087.88;;;0.09;100.00
12879;BME280;20617;49.476;10.986;2023-03-01T02:02:45;99085.28;;;0.06;100.00
12879;BME280;20617;49.476;10.986;2023-03-01T02:05:00;99085.28;;;0.04;100.00
12879;BME280;20617;49.476;10.986;2023-03-01T02:07:15;99071.66;;;0.07;100.00
12879;BME280;20617;49.476;10.986;2023-03-01T02:09:24;99076.78;;;0.08;100.00
12879;BME280;20617;49.476;10.986;2023-03-01T02:11:31;99074.25;;;0.11;100.00
12879;BME280;20617;49.476;10.986;2023-03-01T02:13:36;99077.69;;;0.10;100.00
12879;BME280;20617;49.476;10.986;2023-03-01T02:15:42;99067.47;;;0.13;100.00
12879;BME280;20617;49.476;10.986;2023-03-01T02:17:50;99066.66;;;0.16;100.00
12879;BME280;20617;49.476;10.986;2023-03-01T02:20:07;99064.03;;;0.11;100.00
12879;BME280;20617;49.476;10.986;2023-03-01T02:22:21;99065.75;;;0.12;100.00
12879;BME280;20617;49.476;10.986;2023-03-01T02:24:31;99054.72;;;0.15;100.00
12879;BME280;20617;49.476;10.986;2023-03-01T02:26:47;99058.97;;;0.16;100.00
12879;BME280;20617;49.476;10.986;2023-03-01T02:28:56;99042.75;;;0.17;100.00
12879;BME280;20617;49.476;10.986;2023-03-01T02:31:03;99051.34;;;0.19;100.00
12879;BME280;20617;49.476;10.986;2023-03-01T02:33:21;99041.94;;;0.19;100.00
12879;BME280;20617;49.476;10.986;2023-03-01T02:35:29;99046.25;;;0.22;100.00
12879;BME280;20617;49.476;10.986;2023-03-01T02:37:36;99041.97;;;0.22;100.00
12879;BME280;20617;49.476;10.986;2023-03-01T02:39:44;99050.53;;;0.25;100.00
12879;BME280;20617;49.476;10.986;2023-03-01T02:41:53;99045.44;;;0.26;100.00
12879;BME280;20617;49.476;10.986;2023-03-01T02:44:01;99042.03;;;0.27;100.00
12879;BME280;20617;49.476;10.986;2023-03-01T02:46:08;99037.78;;;0.28;100.00
12879;BME280;20617;49.476;10.986;2023-03-01T02:48:13;99038.63;;;0.28;100.00
12879;BME280;20617;49.476;10.986;2023-03-01T02:50:29;99040.28;;;0.21;100.00
12879;BME280;20617;49.476;10.986;2023-03-01T02:52:45;99031.59;;;0.10;100.00
12879;BME280;20617;49.476;10.986;2023-03-01T02:54:57;99037.53;;;0.08;100.00
12879;BME280;20617;49.476;10.986;2023-03-01T02:57:03;99034.09;;;0.04;100.00
12879;BME280;20617;49.476;10.986;2023-03-01T02:59:12;99032.31;;;-0.02;100.00
12879;BME280;20617;49.476;10.986;2023-03-01T03:01:18;99035.75;;;0.02;100.00
12879;BME280;20617;49.476;10.986;2023-03-01T03:03:22;99034.78;;;-0.06;100.00
12879;BME280;20617;49.476;10.986;2023-03-01T03:05:29;99033.91;;;-0.10;100.00
12879;BME280;20617;49.476;10.986;2023-03-01T03:07:37;99033.94;;;-0.07;100.00
12879;BME280;20617;49.476;10.986;2023-03-01T03:09:42;99024.59;;;-0.03;100.00
12879;BME280;20617;49.476;10.986;2023-03-01T03:11:47;99025.44;;;-0.06;100.00
12879;BME280;20617;49.476;10.986;2023-03-01T03:13:52;99027.97;;;-0.07;100.00
12879;BME280;20617;49.476;10.986;2023-03-01T03:16:02;99022.03;;;-0.03;100.00
12879;BME280;20617;49.476;10.986;2023-03-01T03:18:10;99017.81;;;-0.03;100.00
12879;BME280;20617;49.476;10.986;2023-03-01T03:20:16;99019.50;;;-0.02;100.00
12879;BME280;20617;49.476;10.986;2023-03-01T03:22:22;99023.75;;;-0.04;100.00
12879;BME280;20617;49.476;10.986;2023-03-01T03:24:30;99020.28;;;-0.07;100.00
12879;BME280;20617;49.476;10.986;2023-03-01T03:26:40;99015.09;;;-0.12;100.00
12879;BME280;20617;49.476;10.986;2023-03-01T03:28:44;99009.97;;;-0.12;100.00
12879;BME280;20617;49.476;10.986;2023-03-01T03:30:49;99019.28;;;-0.20;100.00
12879;BME280;20617;49.476;10.986;2023-03-01T03:32:58;99014.19;;;-0.17;100.00
12879;BME280;20617;49.476;10.986;2023-03-01T03:35:04;99012.47;;;-0.18;100.00
12879;BME280;20617;49.476;10.986;2023-03-01T03:37:13;99008.22;;;-0.17;100.00
12879;BME280;20617;49.476;10.986;2023-03-01T03:39:30;99015.03;;;-0.19;100.00
12879;BME280;20617;49.476;10.986;2023-03-01T03:41:36;99006.47;;;-0.23;100.00
12879;BME280;20617;49.476;10.986;2023-03-01T03:43:43;99008.13;;;-0.24;100.00
12879;BME280;20617;49.476;10.986;2023-03-01T03:45:50;99011.25;;;-0.44;100.00
12879;BME280;20617;49.476;10.986;2023-03-01T03:47:58;99017.28;;;-0.41;100.00
12879;BME280;20617;49.476;10.986;2023-03-01T03:50:03;99014.66;;;-0.44;100.00
12879;BME280;20617;49.476;10.986;2023-03-01T03:52:08;99008.69;;;-0.46;100.00
12879;BME280;20617;49.476;10.986;2023-03-01T03:54:15;99005.16;;;-0.54;100.00
12879;BME280;20617;49.476;10.986;2023-03-01T03:56:20;99005.09;;;-0.59;100.00
12879;BME280;20617;49.476;10.986;2023-03-01T03:58:29;99007.66;;;-0.59;100.00
12879;BME280;20617;49.476;10.986;2023-03-01T04:00:35;99007.59;;;-0.62;100.00
12879;BME280;20617;49.476;10.986;2023-03-01T04:02:41;99003.25;;;-0.68;100.00
12879;BME280;20617;49.476;10.986;2023-03-01T04:04:49;99010.88;;;-0.71;100.00
12879;BME280;20617;49.476;10.986;2023-03-01T04:06:54;99012.50;;;-0.76;100.00
12879;BME280;20617;49.476;10.986;2023-03-01T04:08:58;99008.19;;;-0.81;100.00
12879;BME280;20617;49.476;10.986;2023-03-01T04:11:06;99005.69;;;-0.77;100.00
12879;BME280;20617;49.476;10.986;2023-03-01T04:13:23;99008.25;;;-0.77;100.00
12879;BME280;20617;49.476;10.986;2023-03-01T04:15:28;99009.84;;;-0.83;100.00
12879;BME280;20617;49.476;10.986;2023-03-01T04:17:35;99018.41;;;-0.81;100.00
12879;BME280;20617;49.476;10.986;2023-03-01T04:19:41;99015.84;;;-0.81;100.00
12879;BME280;20617;49.476;10.986;2023-03-01T04:21:48;99020.97;;;-0.81;100.00
12879;BME280;20617;49.476;10.986;2023-03-01T04:23:53;99022.63;;;-0.83;100.00
12879;BME280;20617;49.476;10.986;2023-03-01T04:25:58;99020.97;;;-0.80;100.00
12879;BME280;20617;49.476;10.986;2023-03-01T04:28:04;99020.97;;;-0.80;100.00
12879;BME280;20617;49.476;10.986;2023-03-01T04:30:10;99015.84;;;-0.80;100.00
12879;BME280;20617;49.476;10.986;2023-03-01T04:32:15;99018.38;;;-0.83;100.00
12879;BME280;20617;49.476;10.986;2023-03-01T04:34:20;99015.78;;;-0.84;100.00
12879;BME280;20617;49.476;10.986;2023-03-01T04:36:27;99012.41;;;-0.82;100.00
12879;BME280;20617;49.476;10.986;2023-03-01T04:38:38;99020.13;;;-0.80;100.00
12879;BME280;20617;49.476;10.986;2023-03-01T04:40:43;99016.66;;;-0.84;100.00
12879;BME280;20617;49.476;10.986;2023-03-01T04:42:48;99021.69;;;-0.88;100.00
12879;BME280;20617;49.476;10.986;2023-03-01T04:44:53;99021.69;;;-0.90;100.00
12879;BME280;20617;49.476;10.986;2023-03-01T04:46:58;99017.38;;;-0.93;100.00
12879;BME280;20617;49.476;10.986;2023-03-01T04:49:03;99017.34;;;-0.94;100.00
12879;BME280;20617;49.476;10.986;2023-03-01T04:51:08;99013.13;;;-0.92;100.00
12879;BME280;20617;49.476;10.986;2023-03-01T04:53:15;99018.28;;;-0.89;100.00
12879;BME280;20617;49.476;10.986;2023-03-01T04:55:23;99016.63;;;-0.85;100.00
12879;BME280;20617;49.476;10.986;2023-03-01T04:57:27;99023.44;;;-0.86;100.00
12879;BME280;20617;49.476;10.986;2023-03-01T04:59:33;99013.16;;;-0.87;100.00
12879;BME280;20617;49.476;10.986;2023-03-01T05:01:37;99009.75;;;-0.89;100.00
12879;BME280;20617;49.476;10.986;2023-03-01T05:03:46;99008.81;;;-0.95;100.00
12879;BME280;20617;49.476;10.986;2023-03-01T05:05:53;99011.41;;;-0.92;100.00
12879;BME280;20617;49.476;10.986;2023-03-01T05:08:00;99015.72;;;-0.89;100.00
12879;BME280;20617;49.476;10.986;2023-03-01T05:10:05;99013.13;;;-0.92;100.00
12879;BME280;20617;49.476;10.986;2023-03-01T05:12:13;99007.09;;;-0.96;100.00
12879;BME280;20617;49.476;10.986;2023-03-01T05:14:18;99008.84;;;-0.93;100.00
12879;BME280;20617;49.476;10.986;2023-03-01T05:16:23;99011.38;;;-0.95;100.00
12879;BME280;20617;49.476;10.986;2023-03-01T05:18:30;99009.66;;;-0.94;100.00
12879;BME280;20617;49.476;10.986;2023-03-01T05:20:35;99008.88;;;-0.92;100.00
12879;BME280;20617;49.476;10.986;2023-03-01T05:22:40;99014.06;;;-0.85;100.00
12879;BME280;20617;49.476;10.986;2023-03-01T05:24:45;99012.38;;;-0.85;100.00
12879;BME280;20617;49.476;10.986;2023-03-01T05:26:50;99015.81;;;-0.83;100.00
12879;BME280;20617;49.476;10.986;2023-03-01T05:28:58;99012.38;;;-0.85;100.00
12879;BME280;20617;49.476;10.986;2023-03-01T05:31:04;99010.63;;;-0.87;100.00
12879;BME280;20617;49.476;10.986;2023-03-01T05:33:11;99012.25;;;-0.93;100.00
12879;BME280;20617;49.476;10.986;2023-03-01T05:35:17;99006.25;;;-0.95;100.00
12879;BME280;20617;49.476;10.986;2023-03-01T05:37:22;99005.41;;;-0.95;100.00
12879;BME280;20617;49.476;10.986;2023-03-01T05:39:29;99009.66;;;-0.96;100.00
12879;BME280;20617;49.476;10.986;2023-03-01T05:41:34;99002.81;;;-0.97;100.00
12879;BME280;20617;49.476;10.986;2023-03-01T05:43:38;99011.13;;;-1.08;100.00
12879;BME280;20617;49.476;10.986;2023-03-01T05:45:47;99007.81;;;-1.04;100.00
12879;BME280;20617;49.476;10.986;2023-03-01T05:47:53;98994.91;;;-1.12;100.00
12879;BME280;20617;49.476;10.986;2023-03-01T05:49:58;99001.63;;;-1.17;100.00
12879;BME280;20617;49.476;10.986;2023-03-01T05:52:04;98999.88;;;-1.21;100.00
12879;BME280;20617;49.476;10.986;2023-03-01T05:54:08;99000.69;;;-1.24;100.00
12879;BME280;20617;49.476;10.986;2023-03-01T05:56:13;98996.41;;;-1.25;100.00
12879;BME280;20617;49.476;10.986;2023-03-01T05:58:19;98998.97;;;-1.23;100.00
12879;BME280;20617;49.476;10.986;2023-03-01T06:00:24;98995.66;;;-1.19;100.00
12879;BME280;20617;49.476;10.986;2023-03-01T06:02:32;98994.00;;;-1.14;100.00
12879;BME280;20617;49.476;10.986;2023-03-01T06:04:37;98992.25;;;-1.18;100.00
12879;BME280;20617;49.476;10.986;2023-03-01T06:06:42;98993.16;;;-1.16;100.00
12879;BME280;20617;49.476;10.986;2023-03-01T06:08:47;98994.09;;;-1.08;100.00
12879;BME280;20617;49.476;10.986;2023-03-01T06:10:52;98997.56;;;-1.06;100.00
12879;BME280;20617;49.476;10.986;2023-03-01T06:12:57;98995.13;;;-0.98;100.00
12879;BME280;20617;49.476;10.986;2023-03-01T06:15:02;99000.41;;;-0.87;100.00
12879;BME280;20617;49.476;10.986;2023-03-01T06:17:07;99003.03;;;-0.83;100.00
12879;BME280;20617;49.476;10.986;2023-03-01T06:19:16;98981.78;;;-0.80;100.00
12879;BME280;20617;49.476;10.986;2023-03-01T06:21:27;98991.09;;;-0.82;100.00
12879;BME280;20617;49.476;10.986;2023-03-01T06:23:33;98985.09;;;-0.86;100.00
12879;BME280;20617;49.476;10.986;2023-03-01T06:25:38;98989.38;;;-0.85;100.00
12879;BME280;20617;49.476;10.986;2023-03-01T06:27:43;98985.06;;;-0.87;100.00
12879;BME280;20617;49.476;10.986;2023-03-01T06:29:48;98993.47;;;-0.95;100.00
12879;BME280;20617;49.476;10.986;2023-03-01T06:31:53;98989.22;;;-0.94;100.00
12879;BME280;20617;49.476;10.986;2023-03-01T06:33:58;98984.03;;;-1.00;100.00
12879;BME280;20617;49.476;10.986;2023-03-01T06:36:07;98988.38;;;-0.95;100.00
12879;BME280;20617;49.476;10.986;2023-03-01T06:38:12;98982.44;;;-0.92;100.00
12879;BME280;20617;49.476;10.986;2023-03-01T06:40:20;98981.59;;;-0.91;100.00
12879;BME280;20617;49.476;10.986;2023-03-01T06:42:25;98978.16;;;-0.95;100.00
12879;BME280;20617;49.476;10.986;2023-03-01T06:44:30;98979.09;;;-0.88;100.00
12879;BME280;20617;49.476;10.986;2023-03-01T06:46:35;98985.91;;;-0.88;100.00
12879;BME280;20617;49.476;10.986;2023-03-01T06:48:40;98985.13;;;-0.83;100.00
12879;BME280;20617;49.476;10.986;2023-03-01T06:50:44;98986.09;;;-0.76;100.00
12879;BME280;20617;49.476;10.986;2023-03-01T06:52:55;98990.50;;;-0.66;100.00
12879;BME280;20617;49.476;10.986;2023-03-01T06:55:01;98982.88;;;-0.61;100.00
12879;BME280;20617;49.476;10.986;2023-03-01T06:57:06;98988.13;;;-0.55;100.00
12879;BME280;20617;49.476;10.986;2023-03-01T06:59:10;98987.28;;;-0.53;100.00
12879;BME280;20617;49.476;10.986;2023-03-01T07:01:15;98988.19;;;-0.49;100.00
12879;BME280;20617;49.476;10.986;2023-03-01T07:03:20;98983.09;;;-0.49;100.00
12879;BME280;20617;49.476;10.986;2023-03-01T07:05:25;98983.09;;;-0.48;100.00
12879;BME280;20617;49.476;10.986;2023-03-01T07:07:30;98978.00;;;-0.46;100.00
12879;BME280;20617;49.476;10.986;2023-03-01T07:09:37;98974.59;;;-0.45;100.00
12879;BME280;20617;49.476;10.986;2023-03-01T07:11:42;98968.66;;;-0.42;100.00
12879;BME280;20617;49.476;10.986;2023-03-01T07:13:48;98978.13;;;-0.37;100.00
12879;BME280;20617;49.476;10.986;2023-03-01T07:15:53;98967.97;;;-0.31;100.00
12879;BME280;20617;49.476;10.986;2023-03-01T07:17:58;98975.59;;;-0.34;100.00
12879;BME280;20617;49.476;10.986;2023-03-01T07:20:03;98978.13;;;-0.37;100.00
12879;BME280;20617;49.476;10.986;2023-03-01T07:22:08;98976.53;;;-0.29;100.00
12879;BME280;20617;49.476;10.986;2023-03-01T07:24:14;98971.44;;;-0.24;100.00
12879;BME280;20617;49.476;10.986;2023-03-01T07:26:21;98973.25;;;-0.17;100.00
12879;BME280;20617;49.476;10.986;2023-03-01T07:28:27;98967.38;;;-0.10;100.00
12879;BME280;20617;49.476;10.986;2023-03-01T07:30:31;98964.84;;;-0.08;100.00
12879;BME280;20617;49.476;10.986;2023-03-01T07:32:36;98958.91;;;-0.06;100.00
12879;BME280;20617;49.476;10.986;2023-03-01T07:34:41;98959.75;;;-0.05;100.00
12879;BME280;20617;49.476;10.986;2023-03-01T07:36:46;98958.13;;;0.00;100.00
12879;BME280;20617;49.476;10.986;2023-03-01T07:38:51;98953.00;;;0.02;100.00
12879;BME280;20617;49.476;10.986;2023-03-01T07:40:58;98966.66;;;0.01;100.00
12879;BME280;20617;49.476;10.986;2023-03-01T07:43:06;98951.34;;;0.07;100.00
12879;BME280;20617;49.476;10.986;2023-03-01T07:45:11;98950.53;;;0.09;100.00
12879;BME280;20617;49.476;10.986;2023-03-01T07:47:17;98955.72;;;0.15;100.00
12879;BME280;20617;49.476;10.986;2023-03-01T07:49:22;98950.69;;;0.25;100.00
12879;BME280;20617;49.476;10.986;2023-03-01T07:51:28;98946.44;;;0.28;100.00
12879;BME280;20617;49.476;10.986;2023-03-01T07:53:34;98943.09;;;0.32;100.00
12879;BME280;20617;49.476;10.986;2023-03-01T07:55:38;98938.88;;;0.39;100.00
12879;BME280;20617;49.476;10.986;2023-03-01T07:57:43;98940.63;;;0.46;100.00
12879;BME280;20617;49.476;10.986;2023-03-01T07:59:51;98931.31;;;0.51;100.00
12879;BME280;20617;49.476;10.986;2023-03-01T08:01:56;98941.63;;;0.59;100.00
12879;BME280;20617;49.476;10.986;2023-03-01T08:04:01;98947.69;;;0.68;100.00
12879;BME280;20617;49.476;10.986;2023-03-01T08:06:10;98932.34;;;0.72;100.00
12879;BME280;20617;49.476;10.986;2023-03-01T08:08:15;98932.34;;;0.73;100.00
12879;BME280;20617;49.476;10.986;2023-03-01T08:10:20;98945.22;;;0.79;100.00
12879;BME280;20617;49.476;10.986;2023-03-01T08:12:25;98941.00;;;0.87;100.00
12879;BME280;20617;49.476;10.986;2023-03-01T08:14:30;98937.66;;;0.98;100.00
12879;BME280;20617;49.476;10.986;2023-03-01T08:16:37;98940.28;;;1.05;100.00
12879;BME280;20617;49.476;10.986;2023-03-01T08:18:43;98939.47;;;1.12;100.00
12879;BME280;20617;49.476;10.986;2023-03-01T08:20:47;98937.78;;;1.16;100.00
12879;BME280;20617;49.476;10.986;2023-03-01T08:22:52;98929.25;;;1.22;100.00
12879;BME280;20617;49.476;10.986;2023-03-01T08:24:57;98925.00;;;1.24;100.00
12879;BME280;20617;49.476;10.986;2023-03-01T08:27:02;98922.50;;;1.33;100.00
12879;BME280;20617;49.476;10.986;2023-03-01T08:29:07;98923.41;;;1.41;100.00
12879;BME280;20617;49.476;10.986;2023-03-01T08:31:18;98908.03;;;1.44;100.00
12879;BME280;20617;49.476;10.986;2023-03-01T08:33:26;98909.78;;;1.54;100.00
12879;BME280;20617;49.476;10.986;2023-03-01T08:35:33;98909.84;;;1.67;100.00
12879;BME280;20617;49.476;10.986;2023-03-01T08:37:38;98906.44;;;1.74;100.00
12879;BME280;20617;49.476;10.986;2023-03-01T08:39:43;98904.75;;;1.79;100.00
12879;BME280;20617;49.476;10.986;2023-03-01T08:41:48;98893.66;;;1.88;100.00
12879;BME280;20617;49.476;10.986;2023-03-01T08:43:54;98895.41;;;1.98;100.00
12879;BME280;20617;49.476;10.986;2023-03-01T08:46:00;98897.09;;;2.03;100.00
12879;BME280;20617;49.476;10.986;2023-03-01T08:48:05;98902.25;;;2.02;100.00
12879;BME280;20617;49.476;10.986;2023-03-01T08:50:13;98895.41;;;2.07;100.00
12879;BME280;20617;49.476;10.986;2023-03-01T08:52:18;98886.00;;;2.14;100.00
12879;BME280;20617;49.476;10.986;2023-03-01T08:54:23;98885.16;;;2.24;100.00
12879;BME280;20617;49.476;10.986;2023-03-01T08:56:28;98884.31;;;2.33;100.00
12879;BME280;20617;49.476;10.986;2023-03-01T08:58:35;98889.47;;;2.45;100.00
12879;BME280;20617;49.476;10.986;2023-03-01T09:00:41;98886.06;;;2.54;100.00
12879;BME280;20617;49.476;10.986;2023-03-01T09:02:46;98880.91;;;2.63;100.00
12879;BME280;20617;49.476;10.986;2023-03-01T09:04:51;98880.06;;;2.71;100.00
12879;BME280;20617;49.476;10.986;2023-03-01T09:07:01;98878.34;;;2.80;100.00
12879;BME280;20617;49.476;10.986;2023-03-01T09:09:05;98878.31;;;2.81;100.00
12879;BME280;20617;49.476;10.986;2023-03-01T09:11:11;98871.44;;;2.82;100.00
12879;BME280;20617;49.476;10.986;2023-03-01T09:13:17;98874.03;;;2.85;100.00
12879;BME280;20617;49.476;10.986;2023-03-01T09:15:22;98869.75;;;2.84;100.00
12879;BME280;20617;49.476;10.986;2023-03-01T09:17:27;98867.16;;;2.98;100.00
12879;BME280;20617;49.476;10.986;2023-03-01T09:19:34;98869.72;;;3.11;100.00
12879;BME280;20617;49.476;10.986;2023-03-01T09:21:39;98868.84;;;3.09;100.00
12879;BME280;20617;49.476;10.986;2023-03-01T09:23:57;98862.81;;;3.24;100.00
12879;BME280;20617;49.476;10.986;2023-03-01T09:26:02;98855.09;;;3.21;100.00
12879;BME280;20617;49.476;10.986;2023-03-01T09:28:07;98865.38;;;3.21;100.00
12879;BME280;20617;49.476;10.986;2023-03-01T09:30:29;98851.59;;;3.34;100.00
12879;BME280;20617;49.476;10.986;2023-03-01T09:32:34;98853.25;;;3.58;100.00
12879;BME280;20617;49.476;10.986;2023-03-01T09:34:44;98850.53;;;3.83;97.85
12879;BME280;20617;49.476;10.986;2023-03-01T09:37:01;98853.00;;;4.07;95.80
12879;BME280;20617;49.476;10.986;2023-03-01T09:39:09;98846.81;;;4.27;94.82
12879;BME280;20617;49.476;10.986;2023-03-01T09:41:26;98844.25;;;4.28;91.78
12879;BME280;20617;49.476;10.986;2023-03-01T09:43:42;98848.41;;;4.46;92.67
12879;BME280;20617;49.476;10.986;2023-03-01T09:45:52;98840.53;;;4.62;91.45
12879;BME280;20617;49.476;10.986;2023-03-01T09:47:58;98846.44;;;4.73;91.00
12879;BME280;20617;49.476;10.986;2023-03-01T09:50:09;98843.03;;;4.71;87.94
12879;BME280;20617;49.476;10.986;2023-03-01T09:52:23;98841.47;;;4.53;85.74
12879;BME280;20617;49.476;10.986;2023-03-01T09:54:33;98845.03;;;4.35;87.30
12879;BME280;20617;49.476;10.986;2023-03-01T09:56:40;98839.03;;;4.33;90.11
12879;BME280;20617;49.476;10.986;2023-03-01T09:58:49;98835.56;;;4.39;89.74
12879;BME280;20617;49.476;10.986;2023-03-01T10:00:59;98844.16;;;4.42;89.78
12879;BME280;20617;49.476;10.986;2023-03-01T10:03:13;98836.38;;;4.47;89.44
12879;BME280;20617;49.476;10.986;2023-03-01T10:05:36;98839.69;;;4.63;89.84
12879;BME280;20617;49.476;10.986;2023-03-01T10:07:47;98829.31;;;4.69;88.77
12879;BME280;20617;49.476;10.986;2023-03-01T10:09:56;98830.22;;;4.62;85.35
12879;BME280;20617;49.476;10.986;2023-03-01T10:12:04;98830.31;;;4.49;84.88
12879;BME280;20617;49.476;10.986;2023-03-01T10:14:22;98822.59;;;4.49;86.73
12879;BME280;20617;49.476;10.986;2023-03-01T10:16:38;98825.06;;;4.62;87.65
12879;BME280;20617;49.476;10.986;2023-03-01T10:18:47;98820.72;;;4.65;85.73
12879;BME280;20617;49.476;10.986;2023-03-01T10:20:55;98816.41;;;4.67;84.86
12879;BME280;20617;49.476;10.986;2023-03-01T10:23:01;98811.28;;;4.64;84.92
12879;BME280;20617;49.476;10.986;2023-03-01T10:25:13;98816.34;;;4.75;84.01
12879;BME280;20617;49.476;10.986;2023-03-01T10:27:23;98806.84;;;4.79;84.49
12879;BME280;20617;49.476;10.986;2023-03-01T10:29:31;98804.22;;;4.85;82.77
12879;BME280;20617;49.476;10.986;2023-03-01T10:31:42;98804.13;;;4.91;82.39
12879;BME280;20617;49.476;10.986;2023-03-01T10:33:47;98812.69;;;4.94;80.55
12879;BME280;20617;49.476;10.986;2023-03-01T10:35:56;98804.88;;;5.04;82.15
12879;BME280;20617;49.476;10.986;2023-03-01T10:38:06;98799.63;;;5.11;82.38
12879;BME280;20617;49.476;10.986;2023-03-01T10:40:17;98794.41;;;5.16;79.17
12879;BME280;20617;49.476;10.986;2023-03-01T10:42:27;98799.41;;;5.28;81.02
12879;BME280;20617;49.476;10.986;2023-03-01T10:44:40;98801.88;;;5.37;80.47
12879;BME280;20617;49.476;10.986;2023-03-01T10:46:59;98788.94;;;5.42;78.12
12879;BME280;20617;49.476;10.986;2023-03-01T10:49:15;98785.38;;;5.51;77.24
12879;BME280;20617;49.476;10.986;2023-03-01T10:51:22;98778.44;;;5.54;77.29
12879;BME280;20617;49.476;10.986;2023-03-01T10:53:29;98780.94;;;5.62;77.28
12879;BME280;20617;49.476;10.986;2023-03-01T10:55:41;98777.41;;;5.67;76.75
12879;BME280;20617;49.476;10.986;2023-03-01T10:57:46;98773.84;;;5.75;76.89
12879;BME280;20617;49.476;10.986;2023-03-01T11:00:01;98771.16;;;5.82;76.41